N17X TTPP-TTPP
Flight info
| Callsign | N17X |
|---|---|
| Flight time | 1h 1m |
| Altitude | 3500 |
| Route | DCT |
| Aircraft | AS50/L-DGV/C |
Departure
| Time | 2026-05-08 13:48 |
|---|---|
| Airport | Piarco International Airport (TTPP) |
Arrival
| Time | 2026-05-08 14:49 |
|---|---|
| Airport | Piarco International Airport (TTPP) |
| Time | Latitude | Longitude | Altitude | Speed | Heading |
|---|---|---|---|---|---|
| 2026-05-08 13:39 | 10.59241 | -61.34425 | 11 ft | 0 kts | 147° |
| 2026-05-08 13:44 | 10.59241 | -61.34426 | 12 ft | 0 kts | 136° |
| 2026-05-08 13:44 | 10.59244 | -61.34412 | 15 ft | 5 kts | 99° |
| 2026-05-08 13:44 | 10.59262 | -61.34402 | 15 ft | 3 kts | 76° |
| 2026-05-08 13:45 | 10.59315 | -61.34419 | 20 ft | 13 kts | 317° |
| 2026-05-08 13:45 | 10.59365 | -61.34468 | 24 ft | 8 kts | 302° |
| 2026-05-08 13:45 | 10.59395 | -61.34517 | 25 ft | 5 kts | 344° |
| 2026-05-08 13:45 | 10.59406 | -61.34529 | 15 ft | 1 kts | 359° |
| 2026-05-08 13:46 | 10.59416 | -61.34533 | 21 ft | 4 kts | 355° |
| 2026-05-08 13:46 | 10.59510 | -61.34506 | 22 ft | 22 kts | 62° |
| 2026-05-08 13:46 | 10.59533 | -61.34240 | 66 ft | 47 kts | 86° |
| 2026-05-08 13:46 | 10.59539 | -61.33873 | 180 ft | 56 kts | 86° |
| 2026-05-08 13:47 | 10.59799 | -61.33587 | 358 ft | 73 kts | 27° |
| 2026-05-08 13:47 | 10.60361 | -61.33609 | 471 ft | 85 kts | 352° |
| 2026-05-08 13:47 | 10.60826 | -61.33969 | 573 ft | 91 kts | 309° |
| 2026-05-08 13:47 | 10.61120 | -61.34551 | 618 ft | 93 kts | 302° |
| 2026-05-08 13:48 | 10.61395 | -61.35148 | 668 ft | 93 kts | 295° |
| 2026-05-08 13:48 | 10.61633 | -61.35759 | 721 ft | 92 kts | 290° |
| 2026-05-08 13:48 | 10.61831 | -61.36378 | 817 ft | 92 kts | 283° |
| 2026-05-08 13:48 | 10.61887 | -61.37020 | 930 ft | 91 kts | 271° |
| 2026-05-08 13:49 | 10.61874 | -61.37691 | 1030 ft | 101 kts | 268° |
| 2026-05-08 13:49 | 10.61856 | -61.38476 | 1030 ft | 120 kts | 268° |
| 2026-05-08 13:49 | 10.61844 | -61.39333 | 1022 ft | 120 kts | 270° |
| 2026-05-08 13:49 | 10.61829 | -61.40174 | 1025 ft | 119 kts | 269° |
| 2026-05-08 13:50 | 10.61820 | -61.41026 | 1022 ft | 121 kts | 270° |
| 2026-05-08 13:50 | 10.61808 | -61.41869 | 1021 ft | 119 kts | 271° |
| 2026-05-08 13:50 | 10.61803 | -61.42426 | 1030 ft | 120 kts | 271° |
| 2026-05-08 13:50 | 10.61858 | -61.43582 | 1021 ft | 125 kts | 276° |
| 2026-05-08 13:51 | 10.61983 | -61.44445 | 1023 ft | 123 kts | 288° |
| 2026-05-08 13:51 | 10.62256 | -61.45276 | 1027 ft | 126 kts | 293° |
| 2026-05-08 13:51 | 10.62586 | -61.46099 | 1013 ft | 123 kts | 298° |
| 2026-05-08 13:51 | 10.63034 | -61.46819 | 1019 ft | 119 kts | 309° |
| 2026-05-08 13:52 | 10.63357 | -61.47277 | 1018 ft | 117 kts | 309° |
| 2026-05-08 13:52 | 10.63808 | -61.47962 | 1021 ft | 117 kts | 305° |
| 2026-05-08 13:52 | 10.64213 | -61.48693 | 1016 ft | 120 kts | 293° |
| 2026-05-08 13:52 | 10.64345 | -61.49535 | 1020 ft | 125 kts | 274° |
| 2026-05-08 13:53 | 10.64337 | -61.50437 | 1013 ft | 128 kts | 270° |
| 2026-05-08 13:53 | 10.64293 | -61.51325 | 1014 ft | 124 kts | 266° |
| 2026-05-08 13:53 | 10.64196 | -61.52197 | 1018 ft | 125 kts | 264° |
| 2026-05-08 13:53 | 10.64047 | -61.53060 | 1014 ft | 123 kts | 259° |
| 2026-05-08 13:54 | 10.63872 | -61.53916 | 1014 ft | 125 kts | 258° |
| 2026-05-08 13:54 | 10.63707 | -61.54794 | 1012 ft | 128 kts | 260° |
| 2026-05-08 13:54 | 10.63539 | -61.55679 | 1014 ft | 127 kts | 258° |
| 2026-05-08 13:54 | 10.63381 | -61.56591 | 1010 ft | 133 kts | 261° |
| 2026-05-08 13:55 | 10.63245 | -61.57507 | 1010 ft | 129 kts | 263° |
| 2026-05-08 13:55 | 10.63154 | -61.58420 | 1013 ft | 131 kts | 266° |
| 2026-05-08 13:55 | 10.63001 | -61.60281 | 1007 ft | 132 kts | 266° |
| 2026-05-08 13:56 | 10.62908 | -61.61193 | 1009 ft | 130 kts | 263° |
| 2026-05-08 13:56 | 10.62797 | -61.62115 | 1003 ft | 130 kts | 262° |
| 2026-05-08 13:56 | 10.62678 | -61.63011 | 1006 ft | 127 kts | 263° |
| 2026-05-08 13:56 | 10.62557 | -61.63897 | 1005 ft | 126 kts | 263° |
| 2026-05-08 13:57 | 10.62429 | -61.64761 | 1006 ft | 122 kts | 261° |
| 2026-05-08 13:57 | 10.62306 | -61.65625 | 1008 ft | 125 kts | 262° |
| 2026-05-08 13:57 | 10.62180 | -61.66497 | 980 ft | 123 kts | 263° |
| 2026-05-08 13:57 | 10.62075 | -61.67295 | 938 ft | 106 kts | 267° |
| 2026-05-08 13:58 | 10.62019 | -61.68012 | 821 ft | 98 kts | 272° |
| 2026-05-08 13:58 | 10.62013 | -61.68684 | 659 ft | 95 kts | 274° |
| 2026-05-08 13:58 | 10.62132 | -61.69312 | 585 ft | 88 kts | 298° |
| 2026-05-08 13:58 | 10.62416 | -61.69841 | 495 ft | 83 kts | 307° |
| 2026-05-08 13:59 | 10.62657 | -61.70351 | 396 ft | 81 kts | 274° |
| 2026-05-08 13:59 | 10.62291 | -61.70618 | 197 ft | 62 kts | 154° |
| 2026-05-08 13:59 | 10.62116 | -61.70365 | 218 ft | 34 kts | 115° |
| 2026-05-08 13:59 | 10.61988 | -61.70117 | 253 ft | 41 kts | 122° |
| 2026-05-08 14:00 | 10.61864 | -61.69890 | 250 ft | 27 kts | 94° |
| 2026-05-08 14:00 | 10.61849 | -61.69758 | 185 ft | 15 kts | 89° |
| 2026-05-08 14:00 | 10.61847 | -61.69717 | 132 ft | 2 kts | 94° |
| 2026-05-08 14:00 | 10.61845 | -61.69712 | 135 ft | 0 kts | 96° |
| 2026-05-08 14:01 | 10.61844 | -61.69712 | 135 ft | 1 kts | 95° |
| 2026-05-08 14:01 | 10.61844 | -61.69710 | 134 ft | 0 kts | 91° |
| 2026-05-08 14:05 | 10.61845 | -61.69710 | 137 ft | 1 kts | 91° |
| 2026-05-08 14:05 | 10.61726 | -61.69677 | 178 ft | 48 kts | 161° |
| 2026-05-08 14:05 | 10.61359 | -61.69615 | 440 ft | 55 kts | 159° |
| 2026-05-08 14:05 | 10.60961 | -61.69559 | 710 ft | 60 kts | 162° |
| 2026-05-08 14:06 | 10.60547 | -61.69479 | 1045 ft | 62 kts | 158° |
| 2026-05-08 14:06 | 10.60107 | -61.69374 | 1328 ft | 70 kts | 157° |
| 2026-05-08 14:06 | 10.59602 | -61.69213 | 1603 ft | 83 kts | 152° |
| 2026-05-08 14:06 | 10.59010 | -61.69018 | 1811 ft | 96 kts | 159° |
| 2026-05-08 14:07 | 10.58319 | -61.68835 | 1913 ft | 110 kts | 159° |
| 2026-05-08 14:07 | 10.57531 | -61.68613 | 1925 ft | 124 kts | 160° |
| 2026-05-08 14:07 | 10.56647 | -61.68458 | 1944 ft | 132 kts | 168° |
| 2026-05-08 14:07 | 10.55730 | -61.68379 | 2009 ft | 133 kts | 171° |
| 2026-05-08 14:08 | 10.54786 | -61.68324 | 2003 ft | 138 kts | 174° |
| 2026-05-08 14:08 | 10.53815 | -61.68256 | 1998 ft | 141 kts | 173° |
| 2026-05-08 14:08 | 10.52838 | -61.68160 | 1997 ft | 141 kts | 172° |
| 2026-05-08 14:08 | 10.51860 | -61.68048 | 1998 ft | 142 kts | 171° |
| 2026-05-08 14:09 | 10.50874 | -61.67928 | 2000 ft | 143 kts | 172° |
| 2026-05-08 14:09 | 10.49891 | -61.67807 | 2000 ft | 141 kts | 171° |
| 2026-05-08 14:09 | 10.48916 | -61.67688 | 2002 ft | 141 kts | 171° |
| 2026-05-08 14:09 | 10.47942 | -61.67570 | 2000 ft | 141 kts | 172° |
| 2026-05-08 14:10 | 10.46970 | -61.67454 | 2002 ft | 140 kts | 172° |
| 2026-05-08 14:10 | 10.46004 | -61.67339 | 2002 ft | 140 kts | 172° |
| 2026-05-08 14:10 | 10.45048 | -61.67227 | 2001 ft | 140 kts | 172° |
| 2026-05-08 14:10 | 10.44080 | -61.67112 | 2002 ft | 141 kts | 172° |
| 2026-05-08 14:11 | 10.43097 | -61.66994 | 2004 ft | 143 kts | 171° |
| 2026-05-08 14:11 | 10.42108 | -61.66872 | 2001 ft | 143 kts | 172° |
| 2026-05-08 14:11 | 10.41124 | -61.66755 | 2001 ft | 142 kts | 172° |
| 2026-05-08 14:11 | 10.40151 | -61.66640 | 1999 ft | 140 kts | 171° |
| 2026-05-08 14:12 | 10.39190 | -61.66526 | 1999 ft | 138 kts | 171° |
| 2026-05-08 14:12 | 10.38239 | -61.66412 | 2003 ft | 138 kts | 171° |
| 2026-05-08 14:12 | 10.37287 | -61.66296 | 2003 ft | 138 kts | 171° |
| 2026-05-08 14:12 | 10.36335 | -61.66179 | 2000 ft | 137 kts | 170° |
| 2026-05-08 14:13 | 10.35404 | -61.66083 | 1872 ft | 132 kts | 172° |
| 2026-05-08 14:13 | 10.34534 | -61.66009 | 1784 ft | 118 kts | 174° |
| 2026-05-08 14:13 | 10.33765 | -61.65939 | 1759 ft | 104 kts | 173° |
| 2026-05-08 14:13 | 10.33082 | -61.65865 | 1757 ft | 93 kts | 171° |
| 2026-05-08 14:14 | 10.32442 | -61.65787 | 1673 ft | 95 kts | 172° |
| 2026-05-08 14:14 | 10.31782 | -61.65703 | 1547 ft | 97 kts | 171° |
| 2026-05-08 14:14 | 10.31106 | -61.65612 | 1405 ft | 101 kts | 171° |
| 2026-05-08 14:14 | 10.30400 | -61.65519 | 1232 ft | 103 kts | 169° |
| 2026-05-08 14:15 | 10.29692 | -61.65429 | 1062 ft | 102 kts | 170° |
| 2026-05-08 14:15 | 10.28982 | -61.65341 | 820 ft | 100 kts | 171° |
| 2026-05-08 14:15 | 10.28330 | -61.65270 | 690 ft | 86 kts | 160° |
| 2026-05-08 14:15 | 10.27845 | -61.65021 | 587 ft | 71 kts | 153° |
| 2026-05-08 14:16 | 10.27431 | -61.64793 | 546 ft | 61 kts | 129° |
| 2026-05-08 14:16 | 10.27166 | -61.64447 | 524 ft | 63 kts | 121° |
| 2026-05-08 14:16 | 10.26911 | -61.64102 | 523 ft | 59 kts | 122° |
| 2026-05-08 14:16 | 10.26708 | -61.63754 | 463 ft | 56 kts | 112° |
| 2026-05-08 14:17 | 10.26500 | -61.63399 | 404 ft | 56 kts | 119° |
| 2026-05-08 14:17 | 10.26323 | -61.63152 | 285 ft | 28 kts | 119° |
| 2026-05-08 14:17 | 10.26264 | -61.63050 | 200 ft | 11 kts | 157° |
| 2026-05-08 14:17 | 10.26211 | -61.63036 | 137 ft | 3 kts | 166° |
| 2026-05-08 14:18 | 10.26203 | -61.63031 | 123 ft | 2 kts | 178° |
| 2026-05-08 14:18 | 10.26201 | -61.63030 | 121 ft | 0 kts | 189° |
| 2026-05-08 14:22 | 10.26199 | -61.63031 | 128 ft | 2 kts | 137° |
| 2026-05-08 14:22 | 10.26195 | -61.63005 | 136 ft | 35 kts | 128° |
| 2026-05-08 14:23 | 10.25955 | -61.62723 | 399 ft | 54 kts | 115° |
| 2026-05-08 14:23 | 10.25701 | -61.62333 | 618 ft | 75 kts | 114° |
| 2026-05-08 14:23 | 10.25412 | -61.61812 | 655 ft | 93 kts | 115° |
| 2026-05-08 14:23 | 10.25180 | -61.61152 | 670 ft | 104 kts | 104° |
| 2026-05-08 14:24 | 10.24942 | -61.60443 | 730 ft | 109 kts | 109° |
| 2026-05-08 14:24 | 10.24593 | -61.59746 | 783 ft | 113 kts | 115° |
| 2026-05-08 14:24 | 10.24237 | -61.59024 | 814 ft | 116 kts | 111° |
| 2026-05-08 14:24 | 10.23940 | -61.58253 | 840 ft | 118 kts | 107° |
| 2026-05-08 14:25 | 10.23676 | -61.57453 | 855 ft | 120 kts | 102° |
| 2026-05-08 14:25 | 10.23521 | -61.56613 | 865 ft | 121 kts | 98° |
| 2026-05-08 14:25 | 10.23284 | -61.55786 | 870 ft | 123 kts | 104° |
| 2026-05-08 14:25 | 10.23182 | -61.54939 | 847 ft | 119 kts | 85° |
| 2026-05-08 14:26 | 10.23317 | -61.54131 | 941 ft | 112 kts | 79° |
| 2026-05-08 14:26 | 10.23464 | -61.53369 | 1052 ft | 109 kts | 81° |
| 2026-05-08 14:26 | 10.23619 | -61.52596 | 1033 ft | 114 kts | 72° |
| 2026-05-08 14:26 | 10.23978 | -61.51864 | 1027 ft | 119 kts | 58° |
| 2026-05-08 14:27 | 10.24492 | -61.51207 | 1030 ft | 119 kts | 54° |
| 2026-05-08 14:27 | 10.24969 | -61.50525 | 1027 ft | 120 kts | 58° |
| 2026-05-08 14:27 | 10.25295 | -61.49766 | 1027 ft | 116 kts | 69° |
| 2026-05-08 14:27 | 10.25678 | -61.49035 | 1028 ft | 119 kts | 57° |
| 2026-05-08 14:28 | 10.26263 | -61.48424 | 1027 ft | 122 kts | 45° |
| 2026-05-08 14:28 | 10.26872 | -61.47859 | 1027 ft | 112 kts | 42° |
| 2026-05-08 14:28 | 10.27481 | -61.47416 | 1024 ft | 103 kts | 38° |
| 2026-05-08 14:28 | 10.28091 | -61.47087 | 1027 ft | 98 kts | 29° |
| 2026-05-08 14:29 | 10.28722 | -61.46833 | 992 ft | 96 kts | 28° |
| 2026-05-08 14:29 | 10.29324 | -61.46598 | 864 ft | 91 kts | 26° |
| 2026-05-08 14:29 | 10.29870 | -61.46390 | 796 ft | 76 kts | 29° |
| 2026-05-08 14:29 | 10.30300 | -61.46233 | 719 ft | 59 kts | 33° |
| 2026-05-08 14:30 | 10.30639 | -61.46082 | 613 ft | 49 kts | 37° |
| 2026-05-08 14:30 | 10.30936 | -61.45904 | 471 ft | 47 kts | 43° |
| 2026-05-08 14:30 | 10.31201 | -61.45763 | 275 ft | 38 kts | 45° |
| 2026-05-08 14:30 | 10.31378 | -61.45633 | 86 ft | 24 kts | 45° |
| 2026-05-08 14:31 | 10.31438 | -61.45589 | 32 ft | 5 kts | 61° |
| 2026-05-08 14:31 | 10.31450 | -61.45573 | 25 ft | 2 kts | 84° |
| 2026-05-08 14:31 | 10.31450 | -61.45568 | 21 ft | 0 kts | 83° |
| 2026-05-08 14:39 | 10.31453 | -61.45538 | 100 ft | 22 kts | 96° |
| 2026-05-08 14:40 | 10.31437 | -61.45279 | 318 ft | 42 kts | 90° |
| 2026-05-08 14:40 | 10.31634 | -61.45049 | 556 ft | 55 kts | 26° |
| 2026-05-08 14:40 | 10.32047 | -61.44928 | 788 ft | 69 kts | 24° |
| 2026-05-08 14:40 | 10.32547 | -61.44744 | 978 ft | 82 kts | 25° |
| 2026-05-08 14:41 | 10.33113 | -61.44488 | 1019 ft | 98 kts | 28° |
| 2026-05-08 14:41 | 10.33770 | -61.44188 | 995 ft | 108 kts | 27° |
| 2026-05-08 14:41 | 10.34482 | -61.43876 | 1007 ft | 114 kts | 26° |
| 2026-05-08 14:41 | 10.35236 | -61.43546 | 997 ft | 120 kts | 26° |
| 2026-05-08 14:42 | 10.36008 | -61.43198 | 991 ft | 123 kts | 27° |
| 2026-05-08 14:42 | 10.36772 | -61.42851 | 996 ft | 119 kts | 27° |
| 2026-05-08 14:42 | 10.37534 | -61.42504 | 996 ft | 120 kts | 27° |
| 2026-05-08 14:42 | 10.38300 | -61.42196 | 989 ft | 114 kts | 23° |
| 2026-05-08 14:43 | 10.39079 | -61.41933 | 992 ft | 122 kts | 21° |
| 2026-05-08 14:43 | 10.39874 | -61.41665 | 1001 ft | 121 kts | 22° |
| 2026-05-08 14:43 | 10.40669 | -61.41387 | 998 ft | 121 kts | 22° |
| 2026-05-08 14:43 | 10.41474 | -61.41100 | 1003 ft | 124 kts | 21° |
| 2026-05-08 14:44 | 10.42297 | -61.40797 | 991 ft | 125 kts | 23° |
| 2026-05-08 14:44 | 10.43105 | -61.40497 | 996 ft | 122 kts | 22° |
| 2026-05-08 14:44 | 10.43903 | -61.40193 | 996 ft | 122 kts | 23° |
| 2026-05-08 14:44 | 10.44698 | -61.39897 | 1005 ft | 124 kts | 22° |
| 2026-05-08 14:45 | 10.45501 | -61.39599 | 998 ft | 123 kts | 23° |
| 2026-05-08 14:45 | 10.46311 | -61.39293 | 1001 ft | 126 kts | 25° |
| 2026-05-08 14:45 | 10.47113 | -61.38958 | 1002 ft | 124 kts | 24° |
| 2026-05-08 14:45 | 10.47901 | -61.38615 | 998 ft | 123 kts | 26° |
| 2026-05-08 14:46 | 10.48710 | -61.38277 | 994 ft | 126 kts | 22° |
| 2026-05-08 14:46 | 10.49531 | -61.38034 | 999 ft | 121 kts | 20° |
| 2026-05-08 14:46 | 10.50346 | -61.37817 | 1000 ft | 122 kts | 17° |
| 2026-05-08 14:46 | 10.51166 | -61.37639 | 1000 ft | 121 kts | 14° |
| 2026-05-08 14:47 | 10.51974 | -61.37468 | 991 ft | 115 kts | 14° |
| 2026-05-08 14:47 | 10.52743 | -61.37291 | 1003 ft | 115 kts | 17° |
| 2026-05-08 14:47 | 10.53540 | -61.37078 | 991 ft | 119 kts | 17° |
| 2026-05-08 14:47 | 10.54331 | -61.36858 | 1005 ft | 119 kts | 18° |
| 2026-05-08 14:48 | 10.55131 | -61.36627 | 1015 ft | 120 kts | 18° |
| 2026-05-08 14:48 | 10.55910 | -61.36388 | 1014 ft | 112 kts | 19° |
| 2026-05-08 14:48 | 10.56625 | -61.36168 | 997 ft | 103 kts | 20° |
| 2026-05-08 14:48 | 10.57319 | -61.35983 | 902 ft | 104 kts | 17° |
| 2026-05-08 14:49 | 10.58000 | -61.35827 | 817 ft | 97 kts | 19° |
| 2026-05-08 14:49 | 10.58609 | -61.35681 | 718 ft | 85 kts | 24° |
| 2026-05-08 14:49 | 10.59101 | -61.35446 | 435 ft | 71 kts | 53° |
| 2026-05-08 14:49 | 10.59333 | -61.35115 | 228 ft | 46 kts | 86° |
| 2026-05-08 14:50 | 10.59372 | -61.34808 | 112 ft | 42 kts | 102° |
| 2026-05-08 14:50 | 10.59349 | -61.34604 | 69 ft | 19 kts | 114° |
| 2026-05-08 14:50 | 10.59312 | -61.34508 | 63 ft | 11 kts | 148° |
| 2026-05-08 14:50 | 10.59270 | -61.34494 | 25 ft | 5 kts | 163° |